Time;durP1;ratioP1;P1;durP2;ratioP2;P2;SDS_P1;SDS_P2;PMS_P1;PMS_P2;Temp;Humidity;BMP_temperature;BMP_pressure;BME280_temperature;BME280_humidity;BME280_pressure;Samples;Min_cycle;Max_cycle;Signal;HPM_P1;HPM_P2
2021/01/12 00:00:13;;;;;;;16.77;9.40;;;3.40;96.70;;;;;;4886769;29;20394;-69
2021/01/12 00:02:42;;;;;;;15.63;10.13;;;3.40;96.70;;;;;;4886686;29;20040;-70
2021/01/12 00:05:10;;;;;;;15.63;9.80;;;3.40;96.70;;;;;;4888975;29;20072;-69
2021/01/12 00:07:38;;;;;;;19.38;10.35;;;3.30;96.70;;;;;;4886308;29;20044;-69
2021/01/12 00:10:08;;;;;;;12.63;8.60;;;3.20;96.70;;;;;;4887218;29;20044;-70
2021/01/12 00:12:35;;;;;;;12.60;8.07;;;3.00;96.70;;;;;;4885851;29;20068;-70
2021/01/12 00:15:03;;;;;;;11.68;7.85;;;2.90;96.70;;;;;;4887138;29;20577;-69
2021/01/12 00:17:31;;;;;;;13.10;8.07;;;3.00;96.70;;;;;;4879410;29;20041;-69
2021/01/12 00:19:59;;;;;;;11.52;7.90;;;3.00;96.70;;;;;;4885015;29;20044;-70
2021/01/12 00:22:26;;;;;;;11.30;7.25;;;2.90;96.70;;;;;;4886968;29;20045;-69
2021/01/12 00:24:53;;;;;;;11.50;7.15;;;3.10;96.70;;;;;;4887089;29;20041;-69
2021/01/12 00:27:23;;;;;;;11.85;8.02;;;3.00;96.70;;;;;;4887117;29;20072;-69
2021/01/12 00:29:51;;;;;;;13.35;7.90;;;3.10;96.70;;;;;;4886849;29;20060;-69
2021/01/12 00:32:20;;;;;;;10.77;7.07;;;3.20;96.70;;;;;;4887355;29;20068;-69
2021/01/12 00:34:48;;;;;;;11.43;7.68;;;3.10;96.70;;;;;;4884613;29;20084;-69
2021/01/12 00:37:17;;;;;;;12.82;7.97;;;3.10;96.70;;;;;;4885520;29;20064;-69
2021/01/12 00:39:44;;;;;;;11.00;7.93;;;3.00;96.70;;;;;;4883012;29;20064;-69
2021/01/12 00:42:11;;;;;;;11.70;7.78;;;3.00;96.70;;;;;;4887555;29;20076;-69
2021/01/12 00:44:40;;;;;;;13.85;7.78;;;3.00;96.70;;;;;;4880379;29;20040;-69
2021/01/12 00:47:09;;;;;;;8.77;6.00;;;3.00;96.70;;;;;;4883614;29;20396;-68
2021/01/12 00:49:36;;;;;;;7.97;6.00;;;2.80;96.70;;;;;;4884353;29;20149;-69
2021/01/12 00:52:07;;;;;;;8.50;5.63;;;2.70;96.70;;;;;;4887625;29;20111;-69
2021/01/12 00:54:34;;;;;;;10.60;5.97;;;2.70;96.70;;;;;;4898596;29;20131;-69
2021/01/12 00:57:02;;;;;;;9.07;5.85;;;2.70;96.70;;;;;;4887847;29;20044;-69
2021/01/12 00:59:30;;;;;;;10.05;5.97;;;2.80;96.70;;;;;;4883784;29;20049;-69
2021/01/12 01:01:59;;;;;;;8.15;5.95;;;2.80;96.70;;;;;;4886678;29;20040;-69
2021/01/12 01:04:27;;;;;;;10.85;6.47;;;2.60;96.70;;;;;;4884976;29;20049;-69
2021/01/12 01:06:54;;;;;;;9.30;6.32;;;2.60;96.70;;;;;;4886919;29;20049;-69
2021/01/12 01:09:22;;;;;;;10.23;6.45;;;2.70;96.70;;;;;;4884700;29;20135;-70
2021/01/12 01:11:51;;;;;;;8.88;5.63;;;2.60;96.70;;;;;;4885446;29;20052;-69
2021/01/12 01:14:19;;;;;;;8.57;6.07;;;2.60;96.70;;;;;;4882303;29;20076;-70
2021/01/12 01:16:47;;;;;;;9.50;6.50;;;2.70;96.70;;;;;;4881811;29;20510;-69
2021/01/12 01:19:15;;;;;;;12.70;6.97;;;2.70;96.70;;;;;;4885388;29;20562;-69
2021/01/12 01:21:46;;;;;;;11.88;7.35;;;2.70;96.70;;;;;;4889648;29;20107;-69
2021/01/12 01:24:14;;;;;;;10.35;6.97;;;2.60;96.70;;;;;;4884431;29;20411;-69
2021/01/12 01:26:46;;;;;;;11.65;7.60;;;2.60;96.70;;;;;;4887291;29;20041;-69
2021/01/12 01:29:13;;;;;;;11.88;7.85;;;2.60;96.70;;;;;;4886337;29;20439;-69
2021/01/12 01:31:42;;;;;;;12.90;7.78;;;2.70;96.70;;;;;;4884606;29;20087;-69
2021/01/12 01:34:10;;;;;;;13.70;8.05;;;2.70;96.70;;;;;;4882985;29;20048;-69
2021/01/12 01:36:38;;;;;;;14.20;8.40;;;2.70;96.70;;;;;;4884265;29;20044;-69
2021/01/12 01:39:06;;;;;;;11.75;8.18;;;2.70;96.70;;;;;;4888028;29;20119;-69
2021/01/12 01:41:34;;;;;;;12.25;8.30;;;2.70;96.70;;;;;;4884816;29;20059;-69
2021/01/12 01:44:05;;;;;;;11.85;8.43;;;2.60;96.70;;;;;;4884496;29;20495;-69
2021/01/12 01:46:33;;;;;;;11.18;7.68;;;2.80;96.70;;;;;;4885095;29;20127;-69
2021/01/12 01:49:00;;;;;;;9.75;7.25;;;2.80;96.70;;;;;;4887058;29;20124;-70
2021/01/12 01:51:28;;;;;;;13.07;7.97;;;2.70;96.70;;;;;;4883423;29;20530;-70
2021/01/12 01:53:57;;;;;;;11.68;7.68;;;2.60;96.70;;;;;;4885439;29;20287;-69
2021/01/12 01:56:26;;;;;;;10.57;6.57;;;2.60;96.70;;;;;;4867698;29;20044;-70
2021/01/12 01:58:53;;;;;;;10.30;6.20;;;2.50;96.70;;;;;;4885738;29;20048;-69
2021/01/12 02:01:20;;;;;;;11.60;6.68;;;2.60;96.70;;;;;;4881439;29;20408;-69
2021/01/12 02:03:55;;;;;;;9.57;6.03;;;2.70;96.70;;;;;;4882956;29;20041;-68
2021/01/12 02:06:28;;;;;;;11.80;7.10;;;2.70;96.70;;;;;;4880824;29;20047;-69
2021/01/12 02:09:02;;;;;;;11.98;6.93;;;2.60;96.70;;;;;;4885753;29;20147;-69
2021/01/12 02:11:35;;;;;;;8.02;5.43;;;2.60;96.70;;;;;;4883658;29;20057;-69
2021/01/12 02:14:05;;;;;;;9.15;5.75;;;2.60;96.70;;;;;;4884062;29;20047;-69
2021/01/12 02:16:34;;;;;;;9.77;6.22;;;2.50;96.70;;;;;;4882018;29;20426;-69
2021/01/12 02:19:03;;;;;;;11.65;5.75;;;2.50;96.70;;;;;;4882625;29;20044;-69
2021/01/12 02:21:39;;;;;;;9.18;5.68;;;2.50;96.70;;;;;;4881512;29;20053;-70
2021/01/12 02:24:09;;;;;;;;;;;2.60;96.70;;;;;;4878097;29;20060;-69
2021/01/12 02:26:36;;;;;;;7.63;5.20;;;2.70;96.70;;;;;;4882025;29;20041;-69
2021/01/12 02:29:03;;;;;;;9.38;5.32;;;2.70;96.70;;;;;;4886148;29;20044;-69
2021/01/12 02:31:31;;;;;;;7.22;4.57;;;2.50;96.70;;;;;;4882422;29;20083;-69
2021/01/12 02:34:02;;;;;;;8.38;4.80;;;2.30;96.70;;;;;;4885548;29;20048;-70
2021/01/12 02:36:32;;;;;;;7.75;5.00;;;2.20;96.70;;;;;;4879530;29;20049;-70
2021/01/12 02:39:00;;;;;;;6.28;5.15;;;2.20;96.70;;;;;;4883511;29;20356;-69
2021/01/12 02:41:30;;;;;;;7.05;4.72;;;2.20;96.70;;;;;;4882188;29;20056;-70
2021/01/12 02:43:57;;;;;;;7.45;4.95;;;2.40;96.70;;;;;;4881798;29;20051;-70
2021/01/12 02:46:25;;;;;;;7.88;5.30;;;2.30;96.70;;;;;;4880178;29;20037;-69
2021/01/12 02:48:53;;;;;;;10.68;6.68;;;2.20;96.70;;;;;;4883399;29;20112;-69
2021/01/12 02:51:20;;;;;;;10.50;5.32;;;2.10;96.70;;;;;;4883609;29;20104;-69
2021/01/12 02:53:48;;;;;;;10.88;6.80;;;2.20;96.70;;;;;;4884062;29;20045;-69
2021/01/12 02:56:23;;;;;;;9.23;6.35;;;2.30;96.70;;;;;;4884441;29;20382;-70
2021/01/12 02:58:51;;;;;;;11.30;6.80;;;2.40;96.70;;;;;;4880728;29;20066;-69
2021/01/12 03:01:19;;;;;;;9.65;6.53;;;2.20;96.70;;;;;;4884634;29;20045;-69
2021/01/12 03:03:46;;;;;;;10.57;7.15;;;2.20;96.70;;;;;;4876559;29;20451;-70
2021/01/12 03:06:13;;;;;;;12.40;6.72;;;2.10;96.70;;;;;;4882423;29;20049;-69
2021/01/12 03:08:40;;;;;;;10.35;7.55;;;1.90;96.70;;;;;;4866057;29;20459;-69
2021/01/12 03:11:07;;;;;;;12.82;7.30;;;1.90;96.70;;;;;;4882486;29;20045;-69
2021/01/12 03:13:34;;;;;;;11.82;6.65;;;2.00;96.70;;;;;;4881765;29;20053;-69
2021/01/12 03:16:03;;;;;;;10.65;6.68;;;2.00;96.70;;;;;;4884646;29;20048;-69
2021/01/12 03:18:30;;;;;;;12.15;6.07;;;2.10;96.70;;;;;;4885053;29;20048;-69
2021/01/12 03:20:58;;;;;;;10.13;6.15;;;2.10;96.70;;;;;;4888624;29;20049;-69
2021/01/12 03:23:26;;;;;;;8.98;6.13;;;2.10;96.70;;;;;;4885768;29;20041;-69
2021/01/12 03:25:53;;;;;;;9.52;5.88;;;1.90;96.70;;;;;;4886456;29;20041;-69
2021/01/12 03:28:20;;;;;;;9.93;6.55;;;1.80;96.70;;;;;;4886269;29;20036;-69
2021/01/12 03:30:47;;;;;;;8.45;5.68;;;1.80;96.70;;;;;;4887851;29;20187;-69
2021/01/12 03:33:15;;;;;;;8.27;5.45;;;1.90;96.70;;;;;;4885524;29;20126;-69
2021/01/12 03:35:42;;;;;;;8.20;5.13;;;1.90;96.70;;;;;;4885955;29;20036;-69
2021/01/12 03:38:09;;;;;;;6.30;4.60;;;1.90;96.70;;;;;;4887014;29;20040;-68
2021/01/12 03:40:37;;;;;;;7.25;4.45;;;1.80;96.70;;;;;;4887302;29;20056;-69
2021/01/12 03:43:04;;;;;;;8.70;4.60;;;1.80;96.70;;;;;;4884906;29;20054;-69
2021/01/12 03:45:31;;;;;;;6.82;4.32;;;1.80;96.70;;;;;;4884057;29;20045;-70
2021/01/12 03:47:58;;;;;;;7.00;4.53;;;1.60;96.70;;;;;;4885876;29;20104;-69
2021/01/12 03:50:27;;;;;;;6.93;4.68;;;1.50;96.70;;;;;;4884826;29;20133;-69
2021/01/12 03:52:55;;;;;;;6.90;4.78;;;1.60;96.70;;;;;;4907085;23;20063;-68
2021/01/12 03:55:23;;;;;;;7.28;4.80;;;1.70;96.70;;;;;;4863281;29;20071;-69
2021/01/12 03:57:50;;;;;;;8.45;4.78;;;1.70;96.70;;;;;;4849998;29;20535;-69
2021/01/12 04:00:18;;;;;;;7.82;4.75;;;1.70;96.70;;;;;;4850602;29;20045;-70
2021/01/12 04:02:45;;;;;;;7.85;4.78;;;1.70;96.70;;;;;;4866094;29;20130;-69
2021/01/12 04:05:12;;;;;;;7.32;4.03;;;1.60;96.70;;;;;;4851841;29;20121;-69
2021/01/12 04:07:40;;;;;;;6.53;4.10;;;1.50;96.70;;;;;;4853287;29;20203;-69
2021/01/12 04:10:09;;;;;;;6.57;3.83;;;1.40;96.70;;;;;;4851438;29;20053;-69
2021/01/12 04:12:37;;;;;;;7.18;4.50;;;1.40;96.70;;;;;;4849093;29;20189;-69
2021/01/12 04:15:05;;;;;;;6.07;3.80;;;1.50;96.70;;;;;;4853240;29;20422;-69
2021/01/12 04:17:32;;;;;;;7.35;5.57;;;1.60;96.70;;;;;;4866691;29;20582;-69
2021/01/12 04:19:59;;;;;;;6.22;4.10;;;1.60;96.70;;;;;;4854620;29;20113;-69
2021/01/12 04:22:26;;;;;;;6.45;4.85;;;1.60;96.70;;;;;;4852279;29;20404;-69
2021/01/12 04:24:54;;;;;;;7.55;4.93;;;1.60;96.70;;;;;;4850740;29;20049;-69
2021/01/12 04:27:21;;;;;;;7.57;4.93;;;1.60;96.70;;;;;;4851616;29;20045;-69
2021/01/12 04:29:48;;;;;;;9.07;4.88;;;1.60;96.70;;;;;;4862185;29;20520;-69
2021/01/12 04:32:15;;;;;;;6.00;4.53;;;1.60;96.70;;;;;;4854900;29;20136;-69
2021/01/12 04:34:42;;;;;;;8.80;4.68;;;1.70;96.70;;;;;;4849293;29;20129;-69
2021/01/12 04:37:09;;;;;;;8.52;4.80;;;1.70;96.70;;;;;;4849863;29;20050;-69
2021/01/12 04:39:36;;;;;;;7.22;4.40;;;1.70;96.70;;;;;;4844785;29;20042;-70
2021/01/12 04:42:05;;;;;;;7.03;4.75;;;1.70;96.70;;;;;;4852364;29;20062;-69
2021/01/12 04:44:32;;;;;;;7.63;4.45;;;1.70;96.70;;;;;;4850153;29;20046;-69
2021/01/12 04:46:59;;;;;;;9.38;4.43;;;1.70;96.70;;;;;;4853892;29;20045;-69
2021/01/12 04:49:27;;;;;;;6.00;3.95;;;1.70;96.70;;;;;;4850269;29;20041;-69
2021/01/12 04:51:54;;;;;;;8.30;3.95;;;1.70;96.70;;;;;;4851378;29;20060;-69
2021/01/12 04:54:30;;;;;;;6.03;3.70;;;1.70;96.70;;;;;;4849467;29;20785;-69
2021/01/12 04:56:57;;;;;;;4.95;3.50;;;1.80;96.70;;;;;;4850901;29;20052;-69
2021/01/12 04:59:28;;;;;;;5.28;3.70;;;1.80;96.70;;;;;;4850908;29;20037;-69
2021/01/12 05:01:56;;;;;;;7.85;4.43;;;1.70;96.70;;;;;;4835600;29;20050;-70
2021/01/12 05:04:23;;;;;;;6.25;3.92;;;1.70;96.70;;;;;;4847829;29;20044;-69
2021/01/12 05:06:53;;;;;;;5.65;3.83;;;1.70;96.70;;;;;;4865573;29;20136;-69
2021/01/12 05:09:22;;;;;;;6.00;4.20;;;1.70;96.70;;;;;;4849702;29;20073;-69
2021/01/12 05:11:52;;;;;;;5.57;3.67;;;1.60;96.70;;;;;;4849568;29;20157;-68
2021/01/12 05:14:23;;;;;;;10.70;5.38;;;1.70;96.70;;;;;;4849855;29;20041;-69
2021/01/12 05:16:52;;;;;;;8.00;5.05;;;1.60;96.70;;;;;;4845370;29;20071;-69
2021/01/12 05:19:22;;;;;;;7.05;4.80;;;1.50;96.70;;;;;;4848123;29;20049;-69
2021/01/12 05:21:50;;;;;;;6.65;4.57;;;1.60;96.70;;;;;;4850827;29;20042;-69
2021/01/12 05:24:18;;;;;;;8.20;5.60;;;1.60;96.70;;;;;;4849216;29;20227;-69
2021/01/12 05:26:47;;;;;;;7.15;4.75;;;1.60;96.70;;;;;;4849382;29;20060;-69
2021/01/12 05:29:15;;;;;;;7.45;4.70;;;1.40;96.70;;;;;;4847988;29;20042;-69
2021/01/12 05:31:45;;;;;;;12.00;6.95;;;1.50;96.70;;;;;;4850159;29;20057;-68
2021/01/12 05:34:17;;;;;;;7.85;5.57;;;1.40;96.70;;;;;;4832557;29;20061;-69
2021/01/12 05:36:48;;;;;;;9.40;6.55;;;1.40;96.70;;;;;;4861101;29;20136;-69
2021/01/12 05:39:17;;;;;;;8.65;6.22;;;1.30;96.70;;;;;;4847719;29;20533;-69
2021/01/12 05:41:46;;;;;;;9.32;5.55;;;1.30;96.70;;;;;;4847425;29;20120;-69
2021/01/12 05:44:19;;;;;;;7.93;5.00;;;1.40;96.70;;;;;;4849173;29;20510;-69
2021/01/12 05:46:48;;;;;;;7.97;4.82;;;1.40;96.70;;;;;;4848450;29;20053;-69
2021/01/12 05:49:17;;;;;;;8.70;5.47;;;1.50;96.70;;;;;;4847064;29;20125;-69
2021/01/12 05:51:46;;;;;;;9.85;5.65;;;1.50;96.70;;;;;;4849696;29;20046;-69
2021/01/12 05:54:30;;;;;;;7.40;5.40;;;1.40;96.70;;;;;;4847314;29;20050;-69
2021/01/12 05:56:59;;;;;;;6.45;4.63;;;1.30;96.70;;;;;;4849489;29;20070;-69
2021/01/12 05:59:28;;;;;;;7.35;5.03;;;1.30;96.70;;;;;;4862655;29;20461;-69
2021/01/12 06:01:56;;;;;;;8.07;5.40;;;1.20;96.70;;;;;;4848598;29;20056;-69
2021/01/12 06:04:25;;;;;;;6.22;4.13;;;1.20;96.70;;;;;;4847917;29;20033;-69
2021/01/12 06:06:53;;;;;;;7.80;4.80;;;1.10;96.70;;;;;;4845911;29;20235;-68
2021/01/12 06:09:22;;;;;;;9.38;5.32;;;1.10;96.70;;;;;;4863849;29;20054;-69
2021/01/12 06:11:50;;;;;;;7.75;4.93;;;1.20;96.70;;;;;;4846540;29;20527;-68
2021/01/12 06:14:20;;;;;;;8.60;5.03;;;1.30;96.70;;;;;;4848728;29;20090;-69
2021/01/12 06:16:48;;;;;;;7.95;5.70;;;1.50;96.70;;;;;;4847328;29;20400;-69
2021/01/12 06:19:18;;;;;;;8.10;5.57;;;1.30;96.70;;;;;;4847710;29;20041;-69
2021/01/12 06:22:14;;;;;;;8.57;5.80;;;1.30;96.70;;;;;;4835567;29;20146;-70
2021/01/12 06:24:59;;;;;;;9.00;5.22;;;1.50;96.70;;;;;;4852047;29;20073;-69
2021/01/12 06:27:29;;;;;;;8.18;5.50;;;1.10;96.70;;;;;;4847344;29;20041;-69
2021/01/12 06:29:58;;;;;;;7.88;5.22;;;1.10;96.70;;;;;;4850024;29;20038;-69
2021/01/12 06:32:26;;;;;;;10.27;5.50;;;1.20;96.70;;;;;;4833510;29;20041;-70
2021/01/12 06:34:55;;;;;;;8.70;4.88;;;1.20;96.70;;;;;;4849027;29;20064;-69
2021/01/12 06:37:23;;;;;;;7.60;4.57;;;1.30;96.70;;;;;;4860520;29;20048;-69
2021/01/12 06:39:52;;;;;;;6.90;4.60;;;1.30;96.70;;;;;;4849609;29;20042;-68
2021/01/12 06:42:24;;;;;;;8.30;4.70;;;1.30;96.70;;;;;;4850446;29;20568;-68
2021/01/12 06:44:53;;;;;;;8.02;4.65;;;1.30;96.70;;;;;;4834050;29;20046;-69
2021/01/12 06:47:21;;;;;;;11.27;4.90;;;1.30;96.70;;;;;;4826948;29;20068;-68
2021/01/12 06:49:49;;;;;;;6.55;4.60;;;1.20;96.70;;;;;;4848271;29;20258;-69
2021/01/12 06:52:16;;;;;;;8.25;5.03;;;1.20;96.70;;;;;;4859254;29;20045;-69
2021/01/12 06:54:45;;;;;;;9.40;5.70;;;1.20;96.70;;;;;;4845329;29;20053;-69
2021/01/12 06:57:13;;;;;;;10.88;6.65;;;1.20;96.70;;;;;;4860960;29;20424;-68
2021/01/12 06:59:44;;;;;;;10.05;6.68;;;1.30;96.70;;;;;;4847824;29;20870;-68
2021/01/12 07:02:17;;;;;;;12.15;7.43;;;1.30;96.70;;;;;;4861671;29;20524;-69
2021/01/12 07:05:00;;;;;;;14.25;7.93;;;1.30;96.70;;;;;;4861426;29;20140;-69
2021/01/12 07:07:29;;;;;;;13.27;8.40;;;1.30;96.70;;;;;;4849963;29;20051;-70
2021/01/12 07:09:58;;;;;;;15.35;8.65;;;1.40;96.70;;;;;;4845653;29;20461;-69
2021/01/12 07:12:27;;;;;;;18.73;8.88;;;1.40;96.70;;;;;;4849861;29;20044;-69
2021/01/12 07:14:57;;;;;;;16.92;7.95;;;1.40;96.70;;;;;;4860880;29;20646;-68
2021/01/12 07:17:25;;;;;;;14.27;8.05;;;1.50;96.70;;;;;;4847913;29;20097;-69
2021/01/12 07:20:11;;;;;;;18.95;8.10;;;1.50;96.70;;;;;;4849356;29;20045;-69
2021/01/12 07:22:39;;;;;;;17.17;7.82;;;1.40;96.70;;;;;;4847696;29;20124;-69
2021/01/12 07:25:09;;;;;;;12.52;7.38;;;1.40;96.70;;;;;;4861522;29;20519;-69
2021/01/12 07:27:37;;;;;;;14.52;7.50;;;1.30;96.70;;;;;;4862520;29;20057;-69
2021/01/12 07:30:07;;;;;;;12.90;7.43;;;1.40;96.70;;;;;;4864618;29;20457;-69
2021/01/12 07:32:38;;;;;;;11.68;6.95;;;1.50;96.70;;;;;;4847159;29;20046;-69
2021/01/12 07:35:08;;;;;;;13.43;7.32;;;1.50;96.70;;;;;;4848988;29;20049;-69
2021/01/12 07:37:38;;;;;;;12.50;7.60;;;1.60;96.70;;;;;;4841752;29;20064;-69
2021/01/12 07:40:07;;;;;;;12.02;7.70;;;1.50;96.70;;;;;;4862210;29;20053;-69
2021/01/12 07:42:35;;;;;;;12.43;8.07;;;1.60;96.70;;;;;;4849642;29;20168;-69
2021/01/12 07:45:04;;;;;;;13.40;8.40;;;1.60;96.70;;;;;;4860805;29;20671;-70
2021/01/12 07:47:32;;;;;;;14.27;8.50;;;1.70;96.70;;;;;;4845203;29;20051;-70
2021/01/12 07:50:00;;;;;;;17.25;8.40;;;1.70;96.70;;;;;;4841488;29;20052;-69
2021/01/12 07:52:27;;;;;;;17.88;8.90;;;1.80;96.70;;;;;;4844631;29;20371;-70
2021/01/12 07:54:54;;;;;;;17.60;9.60;;;1.90;96.70;;;;;;4850398;29;20045;-70
2021/01/12 07:57:22;;;;;;;15.85;9.48;;;2.00;96.70;;;;;;4848409;29;20050;-70
2021/01/12 07:59:51;;;;;;;17.77;9.05;;;2.10;96.70;;;;;;4849724;29;20085;-69
2021/01/12 08:02:18;;;;;;;14.20;9.48;;;2.30;96.70;;;;;;4861261;29;20076;-68
2021/01/12 08:04:47;;;;;;;16.48;9.30;;;2.30;96.70;;;;;;4860940;29;20269;-69
2021/01/12 08:07:22;;;;;;;15.10;9.27;;;2.40;96.70;;;;;;4845574;29;20041;-70
2021/01/12 08:09:55;;;;;;;17.83;8.73;;;2.40;96.70;;;;;;4848956;29;20049;-70
2021/01/12 08:12:22;;;;;;;17.80;8.48;;;2.40;96.70;;;;;;4847025;29;20080;-70
2021/01/12 08:14:50;;;;;;;16.45;8.82;;;2.50;96.70;;;;;;4852523;29;20329;-70
2021/01/12 08:17:21;;;;;;;16.88;9.15;;;2.60;96.70;;;;;;4866441;29;20104;-69
2021/01/12 08:19:49;;;;;;;16.00;10.15;;;2.50;96.70;;;;;;4851436;29;20094;-69
2021/01/12 08:22:17;;;;;;;16.17;9.48;;;2.50;96.70;;;;;;4850446;29;20049;-71
2021/01/12 08:24:46;;;;;;;15.95;9.52;;;2.30;96.70;;;;;;4848804;29;20629;-70
2021/01/12 08:27:17;;;;;;;15.10;9.40;;;2.30;96.70;;;;;;4850414;29;20046;-70
2021/01/12 08:29:45;;;;;;;14.82;7.88;;;2.30;96.70;;;;;;4849173;29;20948;-70
2021/01/12 08:32:14;;;;;;;15.52;8.48;;;2.50;96.70;;;;;;4864938;29;20136;-71
2021/01/12 08:34:53;;;;;;;18.17;9.85;;;2.60;96.70;;;;;;4850640;29;20041;-69
2021/01/12 08:37:22;;;;;;;18.13;9.20;;;2.70;96.70;;;;;;4853095;29;20041;-70
2021/01/12 08:39:50;;;;;;;16.70;8.88;;;2.80;96.70;;;;;;4849372;29;20044;-71
2021/01/12 08:42:19;;;;;;;17.85;9.05;;;3.00;96.70;;;;;;4846085;29;20471;-70
2021/01/12 08:44:47;;;;;;;19.83;10.20;;;3.00;96.70;;;;;;4865006;29;20050;-70
2021/01/12 08:47:14;;;;;;;21.90;10.35;;;3.10;96.70;;;;;;4848303;29;20049;-70
2021/01/12 08:49:41;;;;;;;21.65;11.63;;;3.10;96.70;;;;;;4851502;29;20052;-71
2021/01/12 08:52:10;;;;;;;19.30;9.80;;;3.10;96.70;;;;;;4846916;29;20129;-70
2021/01/12 08:54:37;;;;;;;25.83;9.65;;;3.10;96.70;;;;;;4847867;29;20061;-69
2021/01/12 08:57:05;;;;;;;16.30;8.35;;;3.10;96.70;;;;;;4847489;29;20049;-70
2021/01/12 08:59:33;;;;;;;17.50;8.70;;;3.30;96.70;;;;;;4863774;29;20132;-69
2021/01/12 09:02:01;;;;;;;17.08;8.10;;;3.30;96.70;;;;;;4853560;29;20053;-69
2021/01/12 09:04:29;;;;;;;15.27;9.32;;;3.40;96.70;;;;;;4849798;29;20136;-69
2021/01/12 09:07:02;;;;;;;18.35;10.05;;;3.60;96.70;;;;;;4850347;29;20037;-69
2021/01/12 09:09:31;;;;;;;19.15;10.52;;;3.80;96.70;;;;;;4847340;29;20049;-68
2021/01/12 09:12:10;;;;;;;17.60;10.05;;;3.80;96.70;;;;;;4854292;29;20128;-69
2021/01/12 09:14:46;;;;;;;15.23;8.93;;;3.90;96.70;;;;;;4849675;29;20042;-70
2021/01/12 09:17:17;;;;;;;14.82;7.72;;;4.00;96.70;;;;;;4849178;29;20140;-70
2021/01/12 09:19:49;;;;;;;14.30;8.18;;;4.00;96.70;;;;;;4846195;29;20054;-69
2021/01/12 09:22:17;;;;;;;12.77;6.95;;;4.00;96.70;;;;;;4848369;29;20149;-69
2021/01/12 09:24:51;;;;;;;18.05;8.32;;;4.10;96.70;;;;;;4850101;29;20061;-70
2021/01/12 09:27:20;;;;;;;13.10;8.27;;;4.20;96.70;;;;;;4854258;29;20049;-71
2021/01/12 09:29:47;;;;;;;15.30;8.23;;;4.10;96.70;;;;;;4847843;29;20461;-69
2021/01/12 09:32:29;;;;;;;14.98;9.13;;;4.20;96.70;;;;;;4849452;29;20394;-70
2021/01/12 09:34:57;;;;;;;18.33;8.90;;;4.30;96.70;;;;;;4844663;29;20109;-70
2021/01/12 09:37:25;;;;;;;14.55;8.55;;;4.40;96.70;;;;;;4851269;29;20408;-70
2021/01/12 09:39:55;;;;;;;14.10;7.50;;;4.50;96.70;;;;;;4853424;29;20048;-70
2021/01/12 09:42:24;;;;;;;16.73;8.45;;;4.60;96.70;;;;;;4848135;29;20695;-70
2021/01/12 09:45:07;;;;;;;18.27;9.02;;;4.60;96.70;;;;;;4852557;29;20053;-70
2021/01/12 09:47:36;;;;;;;15.00;8.25;;;4.80;96.70;;;;;;4848572;29;20282;-69
2021/01/12 09:50:05;;;;;;;16.85;8.60;;;4.90;96.70;;;;;;4862549;29;20049;-70
2021/01/12 09:52:32;;;;;;;14.90;8.55;;;5.00;96.70;;;;;;4848767;29;20077;-67
2021/01/12 09:55:02;;;;;;;13.30;7.60;;;5.20;96.50;;;;;;4852972;29;20057;-68
2021/01/12 09:57:30;;;;;;;12.00;6.68;;;5.30;96.00;;;;;;4845008;29;20045;-68
2021/01/12 09:59:57;;;;;;;14.25;7.10;;;5.40;94.80;;;;;;4853244;29;20209;-68
2021/01/12 10:02:24;;;;;;;11.25;6.75;;;5.40;93.10;;;;;;4846952;29;20056;-68
2021/01/12 10:04:52;;;;;;;10.07;6.18;;;5.50;93.30;;;;;;4851559;29;20045;-68
2021/01/12 10:07:21;;;;;;;11.50;7.30;;;5.50;92.00;;;;;;4846347;29;20507;-70
2021/01/12 10:09:47;;;;;;;12.65;6.97;;;5.50;92.20;;;;;;4854440;29;20149;-70
2021/01/12 10:12:16;;;;;;;10.65;6.40;;;5.70;93.00;;;;;;4848130;29;20049;-70
2021/01/12 10:14:44;;;;;;;9.50;6.25;;;5.70;92.80;;;;;;4848886;29;20048;-68
2021/01/12 10:17:11;;;;;;;11.00;7.20;;;5.80;92.50;;;;;;4842719;29;20046;-68
2021/01/12 10:19:38;;;;;;;13.13;7.38;;;5.80;92.00;;;;;;4851065;29;20048;-70
2021/01/12 10:22:05;;;;;;;13.57;7.55;;;6.00;91.90;;;;;;4851991;29;20580;-69
2021/01/12 10:24:32;;;;;;;11.10;6.60;;;6.10;91.50;;;;;;4845563;29;20152;-67
2021/01/12 10:26:59;;;;;;;11.27;6.88;;;6.10;90.70;;;;;;4846424;29;20086;-67
2021/01/12 10:29:29;;;;;;;10.70;7.25;;;6.00;90.80;;;;;;4849624;29;20112;-68
2021/01/12 10:31:56;;;;;;;12.13;7.32;;;6.00;91.10;;;;;;4860687;29;20068;-67
2021/01/12 10:34:24;;;;;;;11.43;7.35;;;6.10;90.50;;;;;;4848572;29;20041;-66
2021/01/12 10:36:53;;;;;;;13.98;7.45;;;6.10;89.90;;;;;;4848291;29;20045;-66
2021/01/12 10:39:20;;;;;;;14.60;8.15;;;6.30;90.40;;;;;;4847489;29;20045;-68
2021/01/12 10:41:48;;;;;;;13.68;8.07;;;6.40;90.20;;;;;;4863502;29;20473;-66
2021/01/12 10:44:15;;;;;;;14.55;7.97;;;6.60;90.40;;;;;;4863296;29;20571;-69
2021/01/12 10:46:43;;;;;;;12.02;7.88;;;6.70;89.30;;;;;;4844787;29;20037;-67
2021/01/12 10:49:10;;;;;;;12.13;7.22;;;6.80;89.80;;;;;;4846476;29;20504;-67
2021/01/12 10:51:38;;;;;;;10.75;7.50;;;6.90;89.50;;;;;;4846466;29;20416;-67
2021/01/12 10:54:05;;;;;;;12.07;7.20;;;6.90;89.20;;;;;;4834606;29;20068;-67
2021/01/12 10:56:33;;;;;;;10.20;6.85;;;6.90;88.70;;;;;;4846112;29;20054;-68
2021/01/12 10:59:00;;;;;;;14.38;8.30;;;7.00;88.70;;;;;;4848220;29;20056;-68
2021/01/12 11:01:29;;;;;;;13.10;8.10;;;7.00;88.80;;;;;;4833066;29;20053;-68
2021/01/12 11:03:58;;;;;;;13.13;8.07;;;7.10;89.10;;;;;;4848396;29;20052;-68
2021/01/12 11:06:35;;;;;;;13.65;7.07;;;7.20;88.70;;;;;;4854583;29;20097;-68
2021/01/12 11:09:02;;;;;;;14.27;7.25;;;7.30;88.00;;;;;;4847440;29;20046;-68
2021/01/12 11:11:34;;;;;;;13.20;7.70;;;7.50;87.30;;;;;;4846960;29;20049;-67
2021/01/12 11:14:03;;;;;;;13.90;7.65;;;7.50;85.50;;;;;;4848528;29;20579;-67
2021/01/12 11:16:38;;;;;;;11.63;6.70;;;7.50;85.90;;;;;;4847107;29;20404;-68
2021/01/12 11:19:08;;;;;;;13.93;7.20;;;7.70;85.30;;;;;;4848112;29;20497;-67
2021/01/12 11:21:40;;;;;;;14.40;7.25;;;7.80;85.40;;;;;;4862915;29;20132;-68
2021/01/12 11:24:08;;;;;;;11.07;7.40;;;7.90;86.60;;;;;;4849404;29;20054;-67
2021/01/12 11:26:36;;;;;;;10.63;6.78;;;7.90;86.20;;;;;;4864568;29;20515;-67
2021/01/12 11:29:03;;;;;;;15.52;7.38;;;8.00;85.70;;;;;;4847430;29;20133;-67
2021/01/12 11:31:30;;;;;;;15.10;6.82;;;8.00;84.20;;;;;;4851113;29;20399;-67
2021/01/12 11:33:57;;;;;;;9.98;6.38;;;8.00;84.80;;;;;;4850812;29;20130;-67
2021/01/12 11:36:33;;;;;;;9.63;5.95;;;8.00;84.90;;;;;;4847640;29;20626;-67
2021/01/12 11:39:02;;;;;;;8.55;5.88;;;8.10;84.20;;;;;;4846983;29;20041;-67
2021/01/12 11:41:29;;;;;;;11.57;6.88;;;8.20;83.90;;;;;;4854687;29;20520;-67
2021/01/12 11:43:56;;;;;;;8.65;6.05;;;8.20;84.00;;;;;;4852215;29;20078;-67
2021/01/12 11:46:27;;;;;;;9.45;6.15;;;8.20;83.70;;;;;;4851726;29;20045;-68
2021/01/12 11:48:55;;;;;;;9.20;6.43;;;8.10;84.10;;;;;;4847809;29;20284;-67
2021/01/12 11:51:35;;;;;;;11.27;6.97;;;7.90;84.30;;;;;;4851043;29;20046;-67
2021/01/12 11:54:03;;;;;;;13.07;7.43;;;7.80;84.60;;;;;;4846454;29;20214;-68
2021/01/12 11:56:30;;;;;;;12.27;7.20;;;7.90;85.20;;;;;;4862878;29;20122;-68
2021/01/12 11:58:57;;;;;;;9.70;6.80;;;7.90;84.60;;;;;;4856008;29;20056;-68
2021/01/12 12:01:25;;;;;;;12.02;7.85;;;8.00;85.80;;;;;;4835554;29;20049;-68
2021/01/12 12:04:19;;;;;;;12.23;6.20;;;8.10;85.50;;;;;;5041206;23;20023;-67
2021/01/12 12:06:48;;;;;;;9.23;6.25;;;8.20;85.40;;;;;;4831760;29;20059;-68
2021/01/12 12:09:16;;;;;;;12.77;8.70;;;8.30;84.50;;;;;;4843738;29;20476;-66
2021/01/12 12:11:44;;;;;;;12.82;9.65;;;8.40;84.70;;;;;;4836677;29;20064;-68
2021/01/12 12:14:13;;;;;;;11.50;7.97;;;8.50;85.00;;;;;;4834340;29;20449;-71
2021/01/12 12:16:42;;;;;;;12.35;7.72;;;8.60;84.80;;;;;;4836813;29;20038;-70
2021/01/12 12:19:11;;;;;;;11.60;7.55;;;8.70;84.60;;;;;;4831349;29;20034;-70
2021/01/12 12:21:51;;;;;;;11.40;7.63;;;8.70;83.50;;;;;;4855839;29;20507;-70
2021/01/12 12:24:21;;;;;;;9.07;6.85;;;8.80;83.20;;;;;;4825435;29;20072;-69
2021/01/12 12:26:49;;;;;;;9.38;6.78;;;8.90;83.50;;;;;;4838067;29;20462;-69
2021/01/12 12:29:18;;;;;;;10.70;6.93;;;9.00;83.20;;;;;;4846981;29;20050;-69
2021/01/12 12:31:47;;;;;;;11.55;6.82;;;9.00;82.40;;;;;;4840470;29;20162;-68
2021/01/12 12:34:15;;;;;;;9.98;6.50;;;9.00;81.60;;;;;;4825872;29;20405;-70
2021/01/12 12:36:43;;;;;;;8.32;6.05;;;9.10;81.70;;;;;;4753108;29;20289;-70
2021/01/12 12:39:11;;;;;;;9.18;6.30;;;9.20;80.70;;;;;;4833894;29;20229;-69
2021/01/12 12:41:39;;;;;;;9.07;5.47;;;9.20;80.90;;;;;;4835755;29;20420;-71
2021/01/12 12:44:07;;;;;;;8.50;5.47;;;9.40;81.70;;;;;;4835705;29;20057;-71
2021/01/12 12:46:34;;;;;;;11.05;6.55;;;9.40;79.80;;;;;;4832829;29;20050;-72
2021/01/12 12:49:02;;;;;;;9.77;5.88;;;9.50;80.10;;;;;;4776391;29;20406;-72
2021/01/12 12:51:29;;;;;;;10.27;6.22;;;9.70;79.60;;;;;;4833319;29;20575;-70
2021/01/12 12:53:58;;;;;;;10.88;6.68;;;9.80;80.60;;;;;;4854635;29;20132;-70
2021/01/12 12:56:27;;;;;;;9.65;7.05;;;9.70;80.30;;;;;;4834047;29;20056;-70
2021/01/12 12:58:55;;;;;;;16.08;11.40;;;9.90;80.50;;;;;;4842668;29;20514;-71